Time;durP1;ratioP1;P1;durP2;ratioP2;P2;SDS_P1;SDS_P2;PMS_P1;PMS_P2;Temp;Humidity;BMP_temperature;BMP_pressure;BME280_temperature;BME280_humidity;BME280_pressure;Samples;Min_cycle;Max_cycle;Signal;HPM_P1;HPM_P2
2022/11/14 00:02:20;;;;;;;0.80;0.80;;;;;;;5.56;90.63;101495.84;5073002;28;20046;-66
2022/11/14 00:04:46;;;;;;;0.80;0.80;;;;;;;5.56;90.66;101501.28;5079206;28;20110;-67
2022/11/14 00:07:12;;;;;;;0.80;0.80;;;;;;;5.66;89.80;101493.72;5074861;28;20036;-68
2022/11/14 00:09:39;;;;;;;0.70;0.70;;;;;;;5.64;89.84;101498.50;5085326;28;20040;-66
2022/11/14 00:12:05;;;;;;;0.70;0.70;;;;;;;5.65;89.66;101490.13;5084441;28;20475;-68
2022/11/14 00:14:30;;;;;;;0.82;0.82;;;;;;;5.63;90.07;101492.22;5079553;28;20178;-67
2022/11/14 00:16:56;;;;;;;0.70;0.70;;;;;;;5.62;89.97;101495.09;5085151;28;20059;-68
2022/11/14 00:19:21;;;;;;;0.70;0.70;;;;;;;5.63;90.00;101488.66;5084916;28;20046;-66
2022/11/14 00:21:46;;;;;;;0.85;0.85;;;;;;;5.63;89.33;101497.66;5072677;28;20095;-67
2022/11/14 00:24:11;;;;;;;0.70;0.70;;;;;;;5.67;88.89;101485.34;5081330;28;20044;-67
2022/11/14 00:26:37;;;;;;;0.82;0.82;;;;;;;5.67;88.83;101485.34;5086364;28;20031;-67
2022/11/14 00:29:02;;;;;;;0.80;0.80;;;;;;;5.63;88.94;101481.31;5086440;28;20036;-68
2022/11/14 00:31:27;;;;;;;0.80;0.80;;;;;;;5.61;89.26;101480.63;5078514;28;20506;-67
2022/11/14 00:33:53;;;;;;;0.80;0.80;;;;;;;5.65;88.37;101473.78;5084806;28;20039;-66
2022/11/14 00:36:18;;;;;;;0.70;0.70;;;;;;;5.75;87.71;101478.16;5085761;28;20092;-68
2022/11/14 00:38:43;;;;;;;0.70;0.70;;;;;;;5.80;87.17;101484.75;5067786;28;20376;-68
2022/11/14 00:41:08;;;;;;;0.70;0.70;;;;;;;5.84;86.40;101468.88;5085396;28;20036;-67
2022/11/14 00:43:33;;;;;;;0.77;0.77;;;;;;;5.77;86.71;101467.91;5082786;28;20032;-68
2022/11/14 00:45:59;;;;;;;0.70;0.70;;;;;;;5.69;87.28;101469.69;5086294;28;20042;-66
2022/11/14 00:48:24;;;;;;;0.77;0.77;;;;;;;5.67;87.56;101466.25;5085336;28;20028;-66
2022/11/14 00:50:49;;;;;;;0.73;0.73;;;;;;;5.74;86.23;101458.22;5083542;28;20024;-68
2022/11/14 00:53:15;;;;;;;0.70;0.70;;;;;;;5.72;86.32;101466.56;5078920;28;20459;-67
2022/11/14 00:55:41;;;;;;;0.90;0.90;;;;;;;5.57;86.82;101462.09;5088787;28;20035;-68
2022/11/14 00:58:07;;;;;;;0.77;0.77;;;;;;;5.43;87.76;101463.75;5089418;28;20028;-67
2022/11/14 01:00:32;;;;;;;0.77;0.77;;;;;;;5.45;87.49;101457.09;5087660;28;20032;-67
2022/11/14 01:02:58;;;;;;;0.70;0.70;;;;;;;5.43;87.15;101450.16;5089939;28;20039;-67
2022/11/14 01:05:24;;;;;;;0.80;0.80;;;;;;;5.32;87.74;101451.41;5085198;28;20036;-67
2022/11/14 01:07:49;;;;;;;0.80;0.80;;;;;;;5.38;87.36;101439.78;5074910;28;20038;-67
2022/11/14 01:10:16;;;;;;;0.70;0.70;;;;;;;5.23;88.05;101444.34;5080069;28;20024;-67
2022/11/14 01:12:41;;;;;;;0.77;0.77;;;;;;;5.23;88.58;101441.59;5089129;28;20040;-68
2022/11/14 01:15:07;;;;;;;0.70;0.70;;;;;;;5.17;88.68;101436.88;5088865;28;20089;-68
2022/11/14 01:17:32;;;;;;;0.80;0.80;;;;;;;5.25;88.17;101436.81;5085577;28;20713;-68
2022/11/14 01:19:57;;;;;;;0.70;0.70;;;;;;;5.07;89.36;101431.69;5088078;28;20036;-68
2022/11/14 01:22:23;;;;;;;0.80;0.80;;;;;;;5.05;90.14;101433.72;5084158;28;20483;-67
2022/11/14 01:24:48;;;;;;;0.80;0.80;;;;;;;5.06;89.72;101424.50;5088398;28;20035;-68
2022/11/14 01:27:13;;;;;;;0.70;0.70;;;;;;;4.97;90.13;101420.19;5088767;28;20039;-69
2022/11/14 01:29:38;;;;;;;0.80;0.80;;;;;;;4.99;89.93;101414.53;5070993;28;20032;-67
2022/11/14 01:32:04;;;;;;;0.90;0.90;;;;;;;4.91;90.58;101410.00;5088357;28;20095;-66
2022/11/14 01:34:29;;;;;;;0.80;0.80;;;;;;;4.91;90.48;101404.53;5088807;28;20070;-68
2022/11/14 01:36:54;;;;;;;0.77;0.77;;;;;;;4.83;91.07;101405.47;5086791;28;20430;-69
2022/11/14 01:39:20;;;;;;;0.70;0.70;;;;;;;4.83;91.09;101391.84;5088632;28;20024;-68
2022/11/14 01:41:45;;;;;;;0.90;0.90;;;;;;;4.83;91.50;101391.84;5084244;28;20478;-68
2022/11/14 01:44:14;;;;;;;0.93;0.90;;;;;;;4.84;91.39;101382.66;5079534;28;20036;-68
2022/11/14 01:46:42;;;;;;;1.23;0.90;;;;;;;4.86;91.56;101385.19;5088556;28;20060;-68
2022/11/14 01:49:15;;;;;;;0.80;0.80;;;;;;;4.84;91.93;101371.78;5087361;28;20423;-68
2022/11/14 01:52:00;;;;;;;0.88;0.88;;;;;;;4.86;92.23;101377.88;5086468;28;20032;-66
2022/11/14 01:54:29;;;;;;;0.80;0.80;;;;;;;5.06;91.23;101372.78;5085201;28;20032;-68
2022/11/14 01:56:59;;;;;;;0.80;0.80;;;;;;;4.94;91.88;101371.53;5088432;28;20494;-67
2022/11/14 01:59:29;;;;;;;0.80;0.80;;;;;;;4.95;91.90;101373.22;5087838;28;20038;-68
2022/11/14 02:01:57;;;;;;;0.80;0.80;;;;;;;4.86;92.21;101374.31;5087572;28;20032;-67
2022/11/14 02:04:29;;;;;;;0.90;0.90;;;;;;;4.82;93.02;101370.28;5086468;28;20134;-67
2022/11/14 02:07:01;;;;;;;0.90;0.90;;;;;;;4.77;92.99;101380.84;5076893;28;20119;-67
2022/11/14 02:09:30;;;;;;;0.70;0.70;;;;;;;4.73;93.13;101374.06;5105901;22;20068;-68
2022/11/14 02:11:58;;;;;;;0.90;0.90;;;;;;;4.67;93.30;101371.03;5043103;28;20060;-68
2022/11/14 02:14:25;;;;;;;0.85;0.85;;;;;;;4.69;93.12;101374.41;5031264;28;20040;-67
2022/11/14 02:16:50;;;;;;;0.80;0.80;;;;;;;4.61;93.43;101373.59;5040078;28;20116;-67
2022/11/14 02:19:16;;;;;;;0.80;0.80;;;;;;;4.59;93.90;101367.50;5032757;28;20191;-67
2022/11/14 02:21:41;;;;;;;0.90;0.90;;;;;;;4.55;93.97;101358.84;5031313;28;20050;-66
2022/11/14 02:24:10;;;;;;;0.80;0.80;;;;;;;4.48;94.18;101352.44;5044002;28;20033;-67
2022/11/14 02:26:36;;;;;;;0.90;0.90;;;;;;;4.42;94.09;101362.16;5048130;28;20473;-68
2022/11/14 02:29:03;;;;;;;0.80;0.80;;;;;;;4.37;94.70;101356.41;5046453;28;20028;-68
2022/11/14 02:31:28;;;;;;;0.75;0.75;;;;;;;4.32;94.76;101355.25;5045139;28;20051;-67
2022/11/14 02:33:53;;;;;;;0.82;0.82;;;;;;;4.27;94.89;101357.66;5041471;28;20034;-67
2022/11/14 02:36:18;;;;;;;0.80;0.80;;;;;;;4.14;94.99;101364.47;5035506;28;20040;-68
2022/11/14 02:38:44;;;;;;;0.82;0.82;;;;;;;4.12;95.49;101360.25;5045913;28;20123;-67
2022/11/14 02:41:09;;;;;;;0.80;0.80;;;;;;;4.08;95.37;101358.91;5044122;28;20021;-67
2022/11/14 02:43:34;;;;;;;0.98;0.90;;;;;;;4.04;95.72;101363.00;5030188;28;20162;-66
2022/11/14 02:45:59;;;;;;;0.90;0.90;;;;;;;3.99;95.92;101358.09;5040833;28;20535;-68
2022/11/14 02:48:25;;;;;;;1.00;1.00;;;;;;;4.02;96.45;101367.78;5046549;28;20033;-68
2022/11/14 02:50:50;;;;;;;0.90;0.90;;;;;;;4.03;96.41;101359.44;5044922;28;20040;-67
2022/11/14 02:53:15;;;;;;;1.27;0.90;;;;;;;4.02;96.89;101349.59;5046482;28;20039;-68
2022/11/14 02:55:41;;;;;;;1.00;1.00;;;;;;;4.00;96.83;101359.78;5043061;28;20025;-67
2022/11/14 02:58:06;;;;;;;1.00;1.00;;;;;;;3.96;97.06;101347.59;5046911;28;20021;-67
2022/11/14 03:00:32;;;;;;;0.85;0.85;;;;;;;3.93;96.54;101347.91;5045193;28;20025;-69
2022/11/14 03:02:57;;;;;;;0.80;0.80;;;;;;;3.88;96.55;101348.44;5031532;28;20037;-66
2022/11/14 03:05:22;;;;;;;0.90;0.90;;;;;;;3.84;96.47;101347.09;5043208;28;20029;-68
2022/11/14 03:07:52;;;;;;;0.98;0.98;;;;;;;3.81;96.59;101343.91;5040724;28;20087;-68
2022/11/14 03:10:17;;;;;;;0.80;0.80;;;;;;;3.72;96.49;101340.34;5040874;28;20057;-68
2022/11/14 03:12:43;;;;;;;0.80;0.80;;;;;;;3.67;96.55;101336.47;5047316;28;20067;-67
2022/11/14 03:15:09;;;;;;;0.90;0.90;;;;;;;3.57;96.55;101334.78;5046447;28;20045;-68
2022/11/14 03:17:34;;;;;;;0.90;0.90;;;;;;;3.51;97.01;101334.63;5045507;28;20043;-66
2022/11/14 03:20:00;;;;;;;0.80;0.80;;;;;;;3.44;97.21;101333.59;5044762;28;20433;-68
2022/11/14 03:22:25;;;;;;;0.80;0.80;;;;;;;3.36;97.39;101331.75;5042359;28;20032;-67
2022/11/14 03:24:51;;;;;;;0.88;0.88;;;;;;;3.35;98.36;101324.66;5046099;28;20053;-67
2022/11/14 03:27:16;;;;;;;0.90;0.90;;;;;;;3.38;98.68;101327.00;5045886;28;20383;-69
2022/11/14 03:29:41;;;;;;;0.90;0.90;;;;;;;3.28;98.30;101329.03;5034006;28;20076;-68
2022/11/14 03:32:07;;;;;;;0.90;0.90;;;;;;;3.27;98.23;101320.06;5029364;28;20037;-67
2022/11/14 03:34:32;;;;;;;0.90;0.90;;;;;;;3.27;98.97;101321.94;5037506;28;20141;-68
2022/11/14 03:36:59;;;;;;;0.93;0.93;;;;;;;3.31;99.36;101326.84;5044542;28;20031;-67
2022/11/14 03:39:24;;;;;;;1.00;1.00;;;;;;;3.33;99.69;101318.53;5044073;28;20120;-66
2022/11/14 03:41:50;;;;;;;1.00;1.00;;;;;;;3.34;99.29;101309.34;5042572;28;20120;-70
2022/11/14 03:44:15;;;;;;;0.90;0.90;;;;;;;3.35;99.41;101313.78;5035177;28;20041;-69
2022/11/14 03:46:41;;;;;;;1.10;1.00;;;;;;;3.32;99.46;101309.53;5043639;28;20151;-69
2022/11/14 03:49:06;;;;;;;0.90;0.90;;;;;;;3.27;98.97;101311.06;5040576;28;20039;-70
2022/11/14 03:51:31;;;;;;;1.10;0.93;;;;;;;3.16;98.60;101319.56;5036485;28;20025;-70
2022/11/14 03:53:56;;;;;;;0.90;0.90;;;;;;;3.11;98.96;101310.06;5044194;28;20403;-67
2022/11/14 03:56:22;;;;;;;1.10;1.10;;;;;;;3.07;99.20;101313.28;5042114;28;20029;-69
2022/11/14 03:58:47;;;;;;;1.00;1.00;;;;;;;3.06;99.36;101309.72;5044995;28;20076;-70
2022/11/14 04:01:12;;;;;;;0.93;0.93;;;;;;;3.03;99.50;101311.94;5041827;28;20052;-69
2022/11/14 04:03:37;;;;;;;1.00;1.00;;;;;;;3.03;99.59;101309.22;5041339;28;20032;-69
2022/11/14 04:06:03;;;;;;;0.90;0.90;;;;;;;3.01;100.00;101312.09;5045186;28;20159;-69
2022/11/14 04:08:28;;;;;;;1.10;1.10;;;;;;;3.00;100.00;101296.00;5043898;28;20037;-68
2022/11/14 04:10:53;;;;;;;1.00;1.00;;;;;;;2.96;100.00;101294.66;5046003;28;20037;-69
2022/11/14 04:13:19;;;;;;;0.90;0.90;;;;;;;2.95;100.00;101287.53;5032295;28;20043;-68
2022/11/14 04:15:45;;;;;;;1.17;1.17;;;;;;;2.93;100.00;101292.25;5044250;28;20078;-68
2022/11/14 04:18:10;;;;;;;0.90;0.90;;;;;;;2.89;100.00;101290.91;5032639;28;20289;-68
2022/11/14 04:20:35;;;;;;;1.00;1.00;;;;;;;2.88;100.00;101281.91;5030040;28;20380;-68
2022/11/14 04:23:01;;;;;;;1.10;1.10;;;;;;;2.85;100.00;101274.13;5031437;28;20034;-70
2022/11/14 04:25:26;;;;;;;0.90;0.90;;;;;;;2.82;100.00;101280.72;5045884;28;20049;-69
2022/11/14 04:27:51;;;;;;;1.00;1.00;;;;;;;2.79;100.00;101272.09;5046555;28;20040;-69
2022/11/14 04:30:16;;;;;;;0.98;0.98;;;;;;;2.76;100.00;101269.72;5038011;28;20115;-69
2022/11/14 04:32:44;;;;;;;1.15;1.10;;;;;;;2.78;100.00;101275.81;5040365;28;20037;-67
2022/11/14 04:35:09;;;;;;;1.00;1.00;;;;;;;2.74;100.00;101274.47;5048746;28;20027;-67
2022/11/14 04:37:37;;;;;;;1.08;1.08;;;;;;;2.73;100.00;101273.59;5045009;28;20382;-69
2022/11/14 04:40:03;;;;;;;1.30;1.30;;;;;;;2.74;100.00;101269.06;5044837;28;20471;-70
2022/11/14 04:42:28;;;;;;;1.13;1.13;;;;;;;2.73;100.00;101267.34;5036644;28;20060;-67
2022/11/14 04:44:54;;;;;;;1.00;1.00;;;;;;;2.66;100.00;101266.34;5047843;28;20060;-69
2022/11/14 04:47:19;;;;;;;1.00;1.00;;;;;;;2.62;100.00;101263.09;5050402;28;20040;-70
2022/11/14 04:49:44;;;;;;;1.10;1.10;;;;;;;2.58;100.00;101268.00;5047014;28;20037;-69
2022/11/14 04:52:10;;;;;;;1.02;1.02;;;;;;;2.59;100.00;101269.72;5048728;28;20549;-69
2022/11/14 04:54:35;;;;;;;1.20;1.10;;;;;;;2.59;100.00;101267.00;5036213;28;20025;-69
2022/11/14 04:57:00;;;;;;;1.10;1.10;;;;;;;2.62;100.00;101265.81;5046520;28;20090;-69
2022/11/14 04:59:25;;;;;;;1.10;1.10;;;;;;;2.58;100.00;101265.28;5041608;28;20025;-69
2022/11/14 05:01:51;;;;;;;1.20;1.20;;;;;;;2.57;100.00;101266.31;5049674;28;20075;-68
2022/11/14 05:04:16;;;;;;;1.20;1.20;;;;;;;2.58;100.00;101267.16;5044491;28;20029;-70
2022/11/14 05:06:41;;;;;;;1.23;1.13;;;;;;;2.54;100.00;101260.41;5048381;28;20673;-68
2022/11/14 05:09:07;;;;;;;1.15;1.15;;;;;;;2.52;100.00;101257.84;5046629;28;20037;-69
2022/11/14 05:11:32;;;;;;;1.10;1.10;;;;;;;2.50;100.00;101259.88;5044813;28;20037;-70
2022/11/14 05:13:57;;;;;;;1.10;1.10;;;;;;;2.48;100.00;101259.19;5036706;28;20375;-68
2022/11/14 05:16:24;;;;;;;1.10;1.10;;;;;;;2.49;100.00;101252.78;5041826;28;20059;-69
2022/11/14 05:18:52;;;;;;;1.10;1.10;;;;;;;2.50;100.00;101248.19;5046898;28;20039;-69
2022/11/14 05:21:17;;;;;;;1.20;1.20;;;;;;;2.50;100.00;101246.31;5028579;28;20048;-70
2022/11/14 05:23:42;;;;;;;1.10;1.10;;;;;;;2.53;100.00;101243.25;5030076;28;20041;-70
2022/11/14 05:26:10;;;;;;;1.15;1.15;;;;;;;2.53;100.00;101237.00;5042026;28;20525;-70
2022/11/14 05:28:36;;;;;;;1.02;1.02;;;;;;;2.54;100.00;101227.88;5048385;28;20052;-68
2022/11/14 05:31:12;;;;;;;1.52;1.40;;;;;;;2.57;100.00;101227.50;5048147;28;20067;-70
2022/11/14 05:33:38;;;;;;;1.30;1.20;;;;;;;2.56;100.00;101234.78;5038932;28;20120;-68
2022/11/14 05:36:09;;;;;;;1.20;1.20;;;;;;;2.56;100.00;101236.66;5041663;28;20443;-70
2022/11/14 05:38:34;;;;;;;1.17;1.17;;;;;;;2.55;100.00;101233.09;5042015;28;20039;-68
2022/11/14 05:41:14;;;;;;;1.30;1.20;;;;;;;2.57;100.00;101230.22;5028209;28;20021;-70
2022/11/14 05:43:40;;;;;;;1.25;1.25;;;;;;;2.52;100.00;101227.16;5036566;28;20483;-68
2022/11/14 05:46:08;;;;;;;1.27;1.23;;;;;;;2.49;100.00;101230.22;5045470;28;20043;-68
2022/11/14 05:48:34;;;;;;;1.13;1.13;;;;;;;2.52;100.00;101230.72;5040167;28;20471;-69
2022/11/14 05:51:01;;;;;;;1.35;1.30;;;;;;;2.54;100.00;101225.16;5039863;28;20032;-69
2022/11/14 05:53:27;;;;;;;1.40;1.40;;;;;;;2.54;100.00;101219.72;5045973;28;20475;-70
2022/11/14 05:55:54;;;;;;;1.50;1.40;;;;;;;2.52;100.00;101213.63;5036463;28;20029;-70
2022/11/14 05:58:19;;;;;;;1.33;1.23;;;;;;;2.52;100.00;101214.44;5035186;28;20480;-69
2022/11/14 06:00:45;;;;;;;1.20;1.20;;;;;;;2.52;100.00;101214.44;5044306;28;20060;-70
2022/11/14 06:03:10;;;;;;;1.05;1.05;;;;;;;2.52;100.00;101219.03;5043325;28;20128;-68
2022/11/14 06:05:36;;;;;;;1.40;1.30;;;;;;;2.53;100.00;101204.47;5033563;28;20036;-69
2022/11/14 06:08:02;;;;;;;1.20;1.20;;;;;;;2.52;100.00;101214.44;5031029;28;20034;-70
2022/11/14 06:10:28;;;;;;;1.30;1.30;;;;;;;2.50;100.00;101211.09;5042273;28;20055;-68
2022/11/14 06:12:53;;;;;;;1.27;1.27;;;;;;;2.49;100.00;101219.41;5045887;28;20029;-70
2022/11/14 06:15:19;;;;;;;1.20;1.20;;;;;;;2.46;100.00;101217.00;5043036;28;20025;-70
2022/11/14 06:17:44;;;;;;;1.00;1.00;;;;;;;2.43;100.00;101220.88;5048299;28;20036;-70
2022/11/14 06:20:12;;;;;;;1.30;1.20;;;;;;;2.41;100.00;101220.22;5047172;28;20464;-70
2022/11/14 06:22:37;;;;;;;1.20;1.20;;;;;;;2.39;100.00;101224.97;5047027;28;20040;-69
2022/11/14 06:25:03;;;;;;;1.27;1.27;;;;;;;2.38;100.00;101217.00;5047833;28;20020;-68
2022/11/14 06:27:28;;;;;;;1.40;1.30;;;;;;;2.37;100.00;101223.44;5047708;28;20037;-69
2022/11/14 06:29:53;;;;;;;1.27;1.20;;;;;;;2.34;100.00;101233.59;5047583;28;20036;-70
2022/11/14 06:32:19;;;;;;;1.20;1.20;;;;;;;2.38;100.00;101233.25;5047577;28;20039;-70
2022/11/14 06:34:44;;;;;;;1.20;1.20;;;;;;;2.35;100.00;101229.03;5047862;28;20032;-69
2022/11/14 06:37:09;;;;;;;1.40;1.30;;;;;;;2.36;100.00;101225.28;5047234;28;20043;-70
2022/11/14 06:39:34;;;;;;;1.38;1.27;;;;;;;2.34;100.00;101221.91;5047041;28;20483;-69
2022/11/14 06:42:00;;;;;;;1.20;1.20;;;;;;;2.33;100.00;101217.50;5044467;28;20025;-69
2022/11/14 06:44:25;;;;;;;1.10;1.10;;;;;;;2.33;100.00;101218.38;5046971;28;20067;-70
2022/11/14 06:46:50;;;;;;;1.00;1.00;;;;;;;2.32;100.00;101224.78;5048192;28;20025;-68
2022/11/14 06:49:15;;;;;;;1.30;1.30;;;;;;;2.31;100.00;101216.81;5046528;28;20135;-69
2022/11/14 06:51:41;;;;;;;1.17;1.17;;;;;;;2.30;100.00;101220.56;5044767;28;20035;-70
2022/11/14 06:54:06;;;;;;;1.23;1.20;;;;;;;2.30;100.00;101225.97;5047103;28;20033;-69
2022/11/14 06:56:31;;;;;;;1.30;1.20;;;;;;;2.31;100.00;101228.50;5047046;28;20033;-68
2022/11/14 06:58:57;;;;;;;1.20;1.20;;;;;;;2.31;100.00;101235.78;5028685;28;20464;-68
2022/11/14 07:01:27;;;;;;;1.48;1.25;;;;;;;2.30;100.00;101237.66;5042897;28;20095;-69
2022/11/14 07:03:52;;;;;;;1.15;1.15;;;;;;;2.30;100.00;101236.81;5035281;28;20028;-68
2022/11/14 07:06:21;;;;;;;1.30;1.20;;;;;;;2.29;100.00;101241.38;5045486;28;20133;-68
2022/11/14 07:08:46;;;;;;;;;;;;;;;2.36;100.00;101238.84;5045973;28;20048;-69
2022/11/14 07:11:21;;;;;;;1.20;1.20;;;;;;;2.29;100.00;101235.97;5045632;28;19921;-70
2022/11/14 07:13:52;;;;;;;1.10;1.10;;;;;;;2.29;100.00;101235.97;5034309;28;20032;-69
2022/11/14 07:16:18;;;;;;;1.10;1.10;;;;;;;2.27;100.00;101237.13;5032581;28;20068;-68
2022/11/14 07:18:44;;;;;;;1.40;1.30;;;;;;;2.28;100.00;101239.69;5030448;28;20060;-69
2022/11/14 07:21:12;;;;;;;1.30;1.25;;;;;;;2.31;100.00;101233.09;5032832;28;20022;-68
2022/11/14 07:23:37;;;;;;;1.30;1.23;;;;;;;2.34;100.00;101238.19;5039434;28;20549;-69
2022/11/14 07:26:08;;;;;;;2.05;1.30;;;;;;;2.38;100.00;101238.66;5031375;28;20037;-69
2022/11/14 07:28:44;;;;;;;1.30;1.30;;;;;;;2.41;100.00;101236.47;5033086;28;20021;-68
2022/11/14 07:31:15;;;;;;;1.23;1.00;;;;;;;2.44;100.00;101244.28;5029570;28;20025;-68
2022/11/14 07:33:41;;;;;;;1.20;1.20;;;;;;;2.48;100.00;101233.94;5043365;28;20029;-68
2022/11/14 07:36:08;;;;;;;1.27;1.27;;;;;;;2.53;100.00;101235.13;5038912;28;20021;-69
2022/11/14 07:38:34;;;;;;;1.30;1.20;;;;;;;2.58;100.00;101237.31;5044391;28;20044;-69
2022/11/14 07:41:12;;;;;;;1.02;1.02;;;;;;;2.60;100.00;101235.31;5033222;28;20053;-68
2022/11/14 07:43:38;;;;;;;1.40;1.30;;;;;;;2.61;100.00;101228.88;5032952;28;20496;-69
2022/11/14 07:46:24;;;;;;;1.50;1.40;;;;;;;2.72;100.00;101224.97;5037506;28;20129;-69
2022/11/14 07:48:49;;;;;;;1.52;1.42;;;;;;;2.74;100.00;101218.38;5033276;28;20045;-67
2022/11/14 07:51:17;;;;;;;1.20;1.20;;;;;;;2.76;100.00;101210.91;5032254;28;20098;-69
2022/11/14 07:53:43;;;;;;;1.30;1.30;;;;;;;2.82;100.00;101212.91;5043538;28;20041;-69
2022/11/14 07:56:09;;;;;;;1.10;1.10;;;;;;;2.89;100.00;101214.94;5042044;28;20029;-69
2022/11/14 07:58:39;;;;;;;1.20;1.20;;;;;;;2.96;100.00;101215.97;5032491;28;20557;-69
2022/11/14 08:01:06;;;;;;;1.17;1.17;;;;;;;3.07;100.00;101219.16;5041961;28;20087;-69
2022/11/14 08:03:32;;;;;;;1.17;1.13;;;;;;;3.20;100.00;101217.78;5038127;28;20495;-69
2022/11/14 08:06:01;;;;;;;1.40;1.30;;;;;;;3.27;100.00;101207.91;5045170;28;20507;-70
2022/11/14 08:08:26;;;;;;;1.30;1.20;;;;;;;3.32;100.00;101214.50;5045232;28;20029;-69
2022/11/14 08:10:55;;;;;;;1.15;1.08;;;;;;;3.42;100.00;101217.03;5048263;28;20186;-70
2022/11/14 08:13:20;;;;;;;1.20;1.20;;;;;;;3.55;100.00;101211.06;5036561;28;20535;-68
2022/11/14 08:15:45;;;;;;;1.10;1.10;;;;;;;3.75;100.00;101196.03;5042388;28;20155;-69
2022/11/14 08:18:10;;;;;;;1.20;1.10;;;;;;;4.25;100.00;101200.13;5048184;28;20025;-70
2022/11/14 08:20:36;;;;;;;1.40;1.30;;;;;;;5.50;97.82;101183.28;5032213;28;20041;-70
2022/11/14 08:23:08;;;;;;;1.60;1.20;;;;;;;6.76;89.79;101180.06;5046363;28;20033;-69
2022/11/14 08:25:33;;;;;;;1.05;1.05;;;;;;;7.25;85.56;101185.44;5046651;28;20052;-70
2022/11/14 08:27:58;;;;;;;1.00;1.00;;;;;;;7.46;83.91;101180.94;5050049;28;20363;-69
2022/11/14 08:30:24;;;;;;;1.05;1.05;;;;;;;7.59;82.07;101182.88;5048692;28;20045;-71
2022/11/14 08:32:50;;;;;;;0.88;0.88;;;;;;;7.46;81.77;101179.06;5050612;28;20033;-69
2022/11/14 08:35:15;;;;;;;1.00;1.00;;;;;;;7.20;82.40;101173.44;5032667;28;20454;-69
2022/11/14 08:37:40;;;;;;;1.10;1.00;;;;;;;6.79;83.68;101173.34;5047069;28;20033;-71
2022/11/14 08:40:06;;;;;;;1.00;1.00;;;;;;;6.60;84.83;101173.00;5049872;28;20044;-70
2022/11/14 08:42:32;;;;;;;1.20;1.15;;;;;;;6.53;85.75;101176.69;5043463;28;20037;-69
2022/11/14 08:44:57;;;;;;;1.50;1.00;;;;;;;6.94;85.15;101168.63;5046725;28;20048;-69
2022/11/14 08:47:22;;;;;;;1.00;1.00;;;;;;;7.57;83.32;101165.84;5041340;28;20033;-68
2022/11/14 08:49:47;;;;;;;1.00;1.00;;;;;;;8.38;80.62;101157.72;5039232;28;20124;-69
2022/11/14 08:52:13;;;;;;;0.80;0.80;;;;;;;9.43;76.12;101154.03;5040127;28;20124;-69
2022/11/14 08:54:38;;;;;;;0.90;0.90;;;;;;;10.54;70.82;101144.56;5048368;28;20033;-68
2022/11/14 08:57:05;;;;;;;1.00;1.00;;;;;;;11.90;66.76;101147.19;5043291;28;20032;-69
2022/11/14 08:59:30;;;;;;;0.88;0.88;;;;;;;13.14;62.01;101143.75;5048659;28;20039;-68
2022/11/14 09:01:56;;;;;;;0.90;0.90;;;;;;;13.99;58.64;101149.47;5049501;28;20442;-68
2022/11/14 09:04:21;;;;;;;0.95;0.90;;;;;;;14.80;55.97;101146.56;5047099;28;20032;-69
2022/11/14 09:06:47;;;;;;;0.60;0.60;;;;;;;15.60;53.13;101152.69;5042854;28;20029;-68
2022/11/14 09:09:13;;;;;;;0.68;0.68;;;;;;;16.02;50.98;101151.03;5047186;28;20075;-68
2022/11/14 09:11:38;;;;;;;0.70;0.70;;;;;;;16.37;49.75;101146.94;5034178;28;20041;-69
2022/11/14 09:14:04;;;;;;;0.55;0.55;;;;;;;16.43;49.40;101148.69;5029360;28;20072;-69
2022/11/14 09:16:29;;;;;;;0.70;0.70;;;;;;;16.92;47.83;101143.03;5030799;28;20415;-69
2022/11/14 09:18:54;;;;;;;0.68;0.68;;;;;;;16.95;47.04;101142.53;5034097;28;20388;-69
2022/11/14 09:21:19;;;;;;;0.60;0.60;;;;;;;16.86;47.75;101136.63;5042031;28;20036;-69
2022/11/14 09:23:48;;;;;;;0.50;0.50;;;;;;;16.77;47.43;101134.59;5046129;28;20376;-70
2022/11/14 09:26:13;;;;;;;0.60;0.60;;;;;;;16.55;48.09;101141.03;5042706;28;20040;-70
2022/11/14 09:28:39;;;;;;;0.60;0.60;;;;;;;16.04;48.98;101140.53;5042125;28;20025;-68
2022/11/14 09:31:06;;;;;;;0.60;0.60;;;;;;;15.99;49.10;101132.16;5030578;28;20145;-69
2022/11/14 09:33:33;;;;;;;0.63;0.63;;;;;;;16.46;48.45;101139.84;5031797;28;20765;-69
2022/11/14 09:36:04;;;;;;;0.77;0.68;;;;;;;16.74;48.00;101135.97;5034476;28;20039;-70
2022/11/14 09:38:29;;;;;;;0.50;0.50;;;;;;;17.12;46.12;101131.25;5037341;28;20037;-69
2022/11/14 09:41:09;;;;;;;0.55;0.55;;;;;;;17.94;46.14;101124.19;5046357;28;20384;-69
2022/11/14 09:43:53;;;;;;;0.60;0.60;;;;;;;18.17;44.33;101116.47;5032100;28;20227;-69
2022/11/14 09:46:18;;;;;;;0.60;0.60;;;;;;;18.21;43.56;101112.03;5041176;28;20040;-69
2022/11/14 09:48:43;;;;;;;1.07;0.80;;;;;;;18.76;43.31;101107.66;5043651;28;20025;-69
2022/11/14 09:51:15;;;;;;;0.60;0.60;;;;;;;18.50;42.31;101115.09;5046216;28;20304;-69
2022/11/14 09:53:54;;;;;;;1.67;0.70;;;;;;;18.10;45.21;101114.78;5037292;28;20025;-69
2022/11/14 09:56:24;;;;;;;0.77;0.70;;;;;;;18.33;42.79;101123.72;5043423;28;20071;-68
2022/11/14 09:58:49;;;;;;;0.60;0.60;;;;;;;18.52;43.26;101127.66;5048006;28;20463;-68
2022/11/14 10:01:23;;;;;;;0.70;0.70;;;;;;;19.08;43.60;101126.81;5048116;28;20094;-68
2022/11/14 10:04:12;;;;;;;0.80;0.77;;;;;;;19.90;42.67;101130.19;5040766;28;20455;-68
2022/11/14 10:06:55;;;;;;;0.70;0.70;;;;;;;19.32;42.49;101129.84;5027673;28;20033;-68
2022/11/14 10:09:55;;;;;;;0.60;0.60;;;;;;;19.15;44.05;101122.63;5027398;28;20128;-67
2022/11/14 10:12:42;;;;;;;0.70;0.70;;;;;;;18.98;43.86;101110.13;5041343;28;20044;-67
2022/11/14 10:15:22;;;;;;;1.55;0.60;;;;;;;19.39;42.79;101116.44;5046674;28;20044;-67
2022/11/14 10:18:25;;;;;;;0.70;0.70;;;;;;;19.83;42.23;101122.16;5047957;28;20107;-67
2022/11/14 10:21:01;;;;;;;0.80;0.80;;;;;;;20.10;41.29;101120.91;5044625;28;20040;-68
2022/11/14 10:23:47;;;;;;;0.70;0.70;;;;;;;20.40;41.73;101117.91;5046316;28;20383;-68
2022/11/14 10:26:29;;;;;;;0.70;0.70;;;;;;;20.65;40.93;101116.91;5043227;28;20033;-67
2022/11/14 10:29:13;;;;;;;0.70;0.70;;;;;;;20.93;41.21;101109.69;5041246;28;20353;-68
2022/11/14 10:31:48;;;;;;;0.73;0.73;;;;;;;21.42;38.63;101113.41;5047120;28;20055;-67
2022/11/14 10:34:26;;;;;;;0.65;0.65;;;;;;;21.41;37.22;101108.94;5047526;28;20029;-67
2022/11/14 10:37:16;;;;;;;0.60;0.60;;;;;;;21.21;37.54;101107.16;5043846;28;20376;-67
2022/11/14 10:39:54;;;;;;;0.70;0.70;;;;;;;21.45;38.90;101107.22;5028652;28;20033;-67
2022/11/14 10:42:24;;;;;;;;;;;;;;;22.17;41.04;101109.94;5028023;28;20408;-67
2022/11/14 10:44:56;;;;;;;0.95;0.70;;;;;;;21.65;36.91;101098.59;5027824;28;19921;-67
2022/11/14 10:47:24;;;;;;;0.80;0.80;;;;;;;21.37;36.65;101097.50;5027357;28;20021;-67
2022/11/14 10:49:54;;;;;;;0.70;0.70;;;;;;;19.89;38.54;101098.72;5047586;28;20041;-67
2022/11/14 10:52:27;;;;;;;0.80;0.80;;;;;;;19.54;40.33;101101.63;5044483;28;20338;-68
2022/11/14 10:54:58;;;;;;;0.70;0.70;;;;;;;20.06;40.25;101103.91;5041946;28;20052;-68
2022/11/14 10:57:30;;;;;;;0.70;0.70;;;;;;;19.25;40.96;101096.69;5043801;28;20043;-67
2022/11/14 10:59:55;;;;;;;0.90;0.90;;;;;;;19.76;40.08;101093.75;5044432;28;20028;-68
2022/11/14 11:02:21;;;;;;;0.70;0.70;;;;;;;19.89;39.83;101095.91;5045864;28;20419;-68
2022/11/14 11:04:47;;;;;;;0.80;0.80;;;;;;;19.72;39.26;101080.66;5047589;28;20119;-68
2022/11/14 11:12:53;;;;;;;0.80;0.80;;;;;;;20.16;39.51;101075.13;5049545;28;20052;-68
2022/11/14 11:15:21;;;;;;;0.90;0.90;;;;;;;20.20;39.82;101076.22;5036461;28;20035;-68
2022/11/14 11:18:01;;;;;;;0.80;0.80;;;;;;;20.13;41.32;101062.59;5046346;28;20023;-68
2022/11/14 11:20:36;;;;;;;1.20;1.00;;;;;;;19.84;40.28;101061.66;5044865;28;20060;-68
2022/11/14 11:23:13;;;;;;;1.02;1.00;;;;;;;19.67;40.82;101060.09;5041734;28;20043;-68
2022/11/14 11:25:39;;;;;;;0.90;0.90;;;;;;;19.49;41.36;101043.97;5047277;28;20027;-68
2022/11/14 11:28:06;;;;;;;1.15;0.80;;;;;;;20.02;40.19;101046.22;5046781;28;20116;-68
2022/11/14 11:30:31;;;;;;;1.60;1.20;;;;;;;19.63;40.33;101041.44;5046872;28;20029;-69
2022/11/14 11:33:14;;;;;;;0.90;0.90;;;;;;;19.58;42.25;101042.28;5034170;28;20685;-69
2022/11/14 11:35:41;;;;;;;0.80;0.80;;;;;;;18.93;43.26;101038.59;5025075;28;20037;-69
2022/11/14 11:38:10;;;;;;;1.05;0.82;;;;;;;18.91;43.01;101038.06;5033706;28;20422;-69